sensor_id;sensor_type;location;lat;lon;timestamp;temperature;humidity
20091;DHT22;10205;49.678;6.560;2023-05-19T00:00:06;19.50;41.40
20091;DHT22;10205;49.678;6.560;2023-05-19T00:02:34;19.40;41.40
20091;DHT22;10205;49.678;6.560;2023-05-19T00:05:04;19.40;41.50
20091;DHT22;10205;49.678;6.560;2023-05-19T00:07:35;19.30;41.60
20091;DHT22;10205;49.678;6.560;2023-05-19T00:10:05;19.20;41.70
20091;DHT22;10205;49.678;6.560;2023-05-19T00:12:33;19.20;41.60
20091;DHT22;10205;49.678;6.560;2023-05-19T00:15:02;19.20;41.70
20091;DHT22;10205;49.678;6.560;2023-05-19T00:17:30;19.10;41.80
20091;DHT22;10205;49.678;6.560;2023-05-19T00:19:58;19.10;41.90
20091;DHT22;10205;49.678;6.560;2023-05-19T00:22:25;19.00;41.90
20091;DHT22;10205;49.678;6.560;2023-05-19T00:24:54;19.00;42.00
20091;DHT22;10205;49.678;6.560;2023-05-19T00:27:21;18.90;42.10
20091;DHT22;10205;49.678;6.560;2023-05-19T00:29:48;18.90;42.10
20091;DHT22;10205;49.678;6.560;2023-05-19T00:32:15;18.80;42.10
20091;DHT22;10205;49.678;6.560;2023-05-19T00:34:42;18.70;42.10
20091;DHT22;10205;49.678;6.560;2023-05-19T00:37:09;18.70;42.20
20091;DHT22;10205;49.678;6.560;2023-05-19T00:39:36;18.70;42.30
20091;DHT22;10205;49.678;6.560;2023-05-19T00:42:05;18.60;42.40
20091;DHT22;10205;49.678;6.560;2023-05-19T00:44:32;18.60;42.50
20091;DHT22;10205;49.678;6.560;2023-05-19T00:47:01;18.50;42.50
20091;DHT22;10205;49.678;6.560;2023-05-19T00:49:28;18.50;42.60
20091;DHT22;10205;49.678;6.560;2023-05-19T00:51:55;18.40;42.70
20091;DHT22;10205;49.678;6.560;2023-05-19T00:54:23;18.40;42.80
20091;DHT22;10205;49.678;6.560;2023-05-19T00:56:50;18.30;42.70
20091;DHT22;10205;49.678;6.560;2023-05-19T00:59:19;18.30;42.80
20091;DHT22;10205;49.678;6.560;2023-05-19T01:01:46;18.20;42.90
20091;DHT22;10205;49.678;6.560;2023-05-19T01:04:14;18.20;42.90
20091;DHT22;10205;49.678;6.560;2023-05-19T01:06:42;18.20;43.00
20091;DHT22;10205;49.678;6.560;2023-05-19T01:09:09;18.10;43.70
20091;DHT22;10205;49.678;6.560;2023-05-19T01:11:36;18.10;43.00
20091;DHT22;10205;49.678;6.560;2023-05-19T01:14:03;18.00;43.10
20091;DHT22;10205;49.678;6.560;2023-05-19T01:16:36;18.00;43.20
20091;DHT22;10205;49.678;6.560;2023-05-19T01:19:20;17.90;43.40
20091;DHT22;10205;49.678;6.560;2023-05-19T01:22:13;17.90;43.40
20091;DHT22;10205;49.678;6.560;2023-05-19T01:25:17;17.80;43.50
20091;DHT22;10205;49.678;6.560;2023-05-19T01:28:29;17.70;43.50
20091;DHT22;10205;49.678;6.560;2023-05-19T01:31:08;17.70;43.50
20091;DHT22;10205;49.678;6.560;2023-05-19T01:33:37;17.70;43.50
20091;DHT22;10205;49.678;6.560;2023-05-19T01:36:07;17.70;43.50
20091;DHT22;10205;49.678;6.560;2023-05-19T01:38:37;17.60;43.50
20091;DHT22;10205;49.678;6.560;2023-05-19T01:41:06;17.50;43.70
20091;DHT22;10205;49.678;6.560;2023-05-19T01:43:35;17.50;43.70
20091;DHT22;10205;49.678;6.560;2023-05-19T01:46:02;17.40;43.70
20091;DHT22;10205;49.678;6.560;2023-05-19T01:48:32;17.40;43.80
20091;DHT22;10205;49.678;6.560;2023-05-19T01:50:59;17.40;43.90
20091;DHT22;10205;49.678;6.560;2023-05-19T01:53:26;17.30;43.80
20091;DHT22;10205;49.678;6.560;2023-05-19T01:55:55;17.30;44.00
20091;DHT22;10205;49.678;6.560;2023-05-19T01:58:29;17.20;44.10
20091;DHT22;10205;49.678;6.560;2023-05-19T02:01:15;17.10;44.20
20091;DHT22;10205;49.678;6.560;2023-05-19T02:04:00;17.10;44.30
20091;DHT22;10205;49.678;6.560;2023-05-19T02:06:41;17.10;44.30
20091;DHT22;10205;49.678;6.560;2023-05-19T02:09:17;17.00;44.20
20091;DHT22;10205;49.678;6.560;2023-05-19T02:11:53;17.00;44.30
20091;DHT22;10205;49.678;6.560;2023-05-19T02:14:29;16.90;44.40
20091;DHT22;10205;49.678;6.560;2023-05-19T02:17:00;16.90;44.40
20091;DHT22;10205;49.678;6.560;2023-05-19T02:19:33;16.90;44.40
20091;DHT22;10205;49.678;6.560;2023-05-19T02:22:02;16.80;44.50
20091;DHT22;10205;49.678;6.560;2023-05-19T02:24:29;16.80;44.40
20091;DHT22;10205;49.678;6.560;2023-05-19T02:26:56;16.80;44.50
20091;DHT22;10205;49.678;6.560;2023-05-19T02:29:24;16.70;44.50
20091;DHT22;10205;49.678;6.560;2023-05-19T02:31:51;16.70;44.70
20091;DHT22;10205;49.678;6.560;2023-05-19T02:34:18;16.60;44.70
20091;DHT22;10205;49.678;6.560;2023-05-19T02:36:46;16.60;44.70
20091;DHT22;10205;49.678;6.560;2023-05-19T02:39:14;16.60;44.90
20091;DHT22;10205;49.678;6.560;2023-05-19T02:41:41;16.50;44.80
20091;DHT22;10205;49.678;6.560;2023-05-19T02:44:08;16.50;44.90
20091;DHT22;10205;49.678;6.560;2023-05-19T02:46:35;16.40;45.00
20091;DHT22;10205;49.678;6.560;2023-05-19T02:49:02;16.40;45.00
20091;DHT22;10205;49.678;6.560;2023-05-19T02:51:29;16.40;45.20
20091;DHT22;10205;49.678;6.560;2023-05-19T02:53:58;16.30;45.10
20091;DHT22;10205;49.678;6.560;2023-05-19T02:56:25;16.30;45.10
20091;DHT22;10205;49.678;6.560;2023-05-19T02:58:52;16.30;45.50
20091;DHT22;10205;49.678;6.560;2023-05-19T03:01:19;16.20;45.20
20091;DHT22;10205;49.678;6.560;2023-05-19T03:03:48;16.20;45.30
20091;DHT22;10205;49.678;6.560;2023-05-19T03:06:15;16.20;45.30
20091;DHT22;10205;49.678;6.560;2023-05-19T03:08:42;16.10;45.30
20091;DHT22;10205;49.678;6.560;2023-05-19T03:11:11;16.10;45.40
20091;DHT22;10205;49.678;6.560;2023-05-19T03:13:39;16.00;45.60
20091;DHT22;10205;49.678;6.560;2023-05-19T03:16:06;16.00;45.50
20091;DHT22;10205;49.678;6.560;2023-05-19T03:18:34;16.00;45.50
20091;DHT22;10205;49.678;6.560;2023-05-19T03:21:01;15.90;45.50
20091;DHT22;10205;49.678;6.560;2023-05-19T03:23:28;15.90;45.50
20091;DHT22;10205;49.678;6.560;2023-05-19T03:25:55;15.90;45.60
20091;DHT22;10205;49.678;6.560;2023-05-19T03:28:24;15.80;46.30
20091;DHT22;10205;49.678;6.560;2023-05-19T03:30:51;15.80;45.80
20091;DHT22;10205;49.678;6.560;2023-05-19T03:33:18;15.70;45.80
20091;DHT22;10205;49.678;6.560;2023-05-19T03:35:45;15.70;45.80
20091;DHT22;10205;49.678;6.560;2023-05-19T03:38:12;15.70;46.60
20091;DHT22;10205;49.678;6.560;2023-05-19T03:40:39;15.60;45.90
20091;DHT22;10205;49.678;6.560;2023-05-19T03:43:06;15.60;45.90
20091;DHT22;10205;49.678;6.560;2023-05-19T03:45:35;15.60;46.00
20091;DHT22;10205;49.678;6.560;2023-05-19T03:48:02;15.60;46.10
20091;DHT22;10205;49.678;6.560;2023-05-19T03:50:30;15.50;46.00
20091;DHT22;10205;49.678;6.560;2023-05-19T03:52:58;15.50;46.10
20091;DHT22;10205;49.678;6.560;2023-05-19T03:55:25;15.40;46.10
20091;DHT22;10205;49.678;6.560;2023-05-19T03:57:54;15.40;46.20
20091;DHT22;10205;49.678;6.560;2023-05-19T04:00:21;15.40;46.30
20091;DHT22;10205;49.678;6.560;2023-05-19T04:02:50;15.30;46.30
20091;DHT22;10205;49.678;6.560;2023-05-19T04:05:17;15.30;46.40
20091;DHT22;10205;49.678;6.560;2023-05-19T04:07:44;15.30;46.40
20091;DHT22;10205;49.678;6.560;2023-05-19T04:10:12;15.20;46.40
20091;DHT22;10205;49.678;6.560;2023-05-19T04:12:39;15.20;46.50
20091;DHT22;10205;49.678;6.560;2023-05-19T04:15:07;15.20;46.50
20091;DHT22;10205;49.678;6.560;2023-05-19T04:17:36;15.20;46.60
20091;DHT22;10205;49.678;6.560;2023-05-19T04:20:06;15.10;46.80
20091;DHT22;10205;49.678;6.560;2023-05-19T04:22:34;15.10;46.90
20091;DHT22;10205;49.678;6.560;2023-05-19T04:25:01;15.10;46.70
20091;DHT22;10205;49.678;6.560;2023-05-19T04:27:29;15.00;46.70
20091;DHT22;10205;49.678;6.560;2023-05-19T04:29:56;14.90;46.70
20091;DHT22;10205;49.678;6.560;2023-05-19T04:32:23;14.90;46.70
20091;DHT22;10205;49.678;6.560;2023-05-19T04:34:50;14.90;46.80
20091;DHT22;10205;49.678;6.560;2023-05-19T04:37:19;14.90;46.80
20091;DHT22;10205;49.678;6.560;2023-05-19T04:39:46;14.80;47.00
20091;DHT22;10205;49.678;6.560;2023-05-19T04:42:13;14.80;46.90
20091;DHT22;10205;49.678;6.560;2023-05-19T04:44:43;14.80;47.00
20091;DHT22;10205;49.678;6.560;2023-05-19T04:47:10;14.80;47.00
20091;DHT22;10205;49.678;6.560;2023-05-19T04:49:39;14.70;47.00
20091;DHT22;10205;49.678;6.560;2023-05-19T04:52:07;14.70;47.10
20091;DHT22;10205;49.678;6.560;2023-05-19T04:54:38;14.70;47.10
20091;DHT22;10205;49.678;6.560;2023-05-19T04:57:06;14.70;47.30
20091;DHT22;10205;49.678;6.560;2023-05-19T04:59:35;14.60;47.10
20091;DHT22;10205;49.678;6.560;2023-05-19T05:02:02;14.60;47.30
20091;DHT22;10205;49.678;6.560;2023-05-19T05:04:29;14.60;47.30
20091;DHT22;10205;49.678;6.560;2023-05-19T05:06:57;14.60;47.30
20091;DHT22;10205;49.678;6.560;2023-05-19T05:09:24;14.60;47.50
20091;DHT22;10205;49.678;6.560;2023-05-19T05:11:53;14.50;47.50
20091;DHT22;10205;49.678;6.560;2023-05-19T05:14:21;14.50;47.60
20091;DHT22;10205;49.678;6.560;2023-05-19T05:16:49;14.50;47.60
20091;DHT22;10205;49.678;6.560;2023-05-19T05:19:17;14.50;48.00
20091;DHT22;10205;49.678;6.560;2023-05-19T05:21:47;14.40;47.80
20091;DHT22;10205;49.678;6.560;2023-05-19T05:24:15;14.40;47.80
20091;DHT22;10205;49.678;6.560;2023-05-19T05:26:43;14.40;47.80
20091;DHT22;10205;49.678;6.560;2023-05-19T05:29:12;14.40;47.90
20091;DHT22;10205;49.678;6.560;2023-05-19T05:31:39;14.30;48.10
20091;DHT22;10205;49.678;6.560;2023-05-19T05:34:06;14.30;48.30
20091;DHT22;10205;49.678;6.560;2023-05-19T05:36:33;14.30;48.30
20091;DHT22;10205;49.678;6.560;2023-05-19T05:39:03;14.20;48.50
20091;DHT22;10205;49.678;6.560;2023-05-19T05:41:31;14.20;48.90
20091;DHT22;10205;49.678;6.560;2023-05-19T05:44:00;14.10;48.80
20091;DHT22;10205;49.678;6.560;2023-05-19T05:46:29;14.10;48.90
20091;DHT22;10205;49.678;6.560;2023-05-19T05:48:56;14.10;49.10
20091;DHT22;10205;49.678;6.560;2023-05-19T05:51:24;14.00;49.00
20091;DHT22;10205;49.678;6.560;2023-05-19T05:53:53;14.00;49.20
20091;DHT22;10205;49.678;6.560;2023-05-19T05:56:21;14.00;49.40
20091;DHT22;10205;49.678;6.560;2023-05-19T05:58:48;14.00;49.40
20091;DHT22;10205;49.678;6.560;2023-05-19T06:01:16;14.00;49.40
20091;DHT22;10205;49.678;6.560;2023-05-19T06:03:45;14.00;49.70
20091;DHT22;10205;49.678;6.560;2023-05-19T06:06:12;13.90;49.80
20091;DHT22;10205;49.678;6.560;2023-05-19T06:08:39;13.90;49.80
20091;DHT22;10205;49.678;6.560;2023-05-19T06:11:06;13.90;49.80
20091;DHT22;10205;49.678;6.560;2023-05-19T06:13:34;13.90;49.90
20091;DHT22;10205;49.678;6.560;2023-05-19T06:16:01;13.90;50.10
20091;DHT22;10205;49.678;6.560;2023-05-19T06:18:28;13.90;50.20
20091;DHT22;10205;49.678;6.560;2023-05-19T06:20:57;13.90;50.40
20091;DHT22;10205;49.678;6.560;2023-05-19T06:23:24;13.90;50.30
20091;DHT22;10205;49.678;6.560;2023-05-19T06:25:53;14.00;50.50
20091;DHT22;10205;49.678;6.560;2023-05-19T06:28:20;14.00;50.50
20091;DHT22;10205;49.678;6.560;2023-05-19T06:30:47;14.00;50.60
20091;DHT22;10205;49.678;6.560;2023-05-19T06:33:14;14.00;50.80
20091;DHT22;10205;49.678;6.560;2023-05-19T06:35:41;14.00;50.70
20091;DHT22;10205;49.678;6.560;2023-05-19T06:38:10;14.10;50.80
20091;DHT22;10205;49.678;6.560;2023-05-19T06:40:37;14.10;50.80
20091;DHT22;10205;49.678;6.560;2023-05-19T06:43:04;14.10;50.80
20091;DHT22;10205;49.678;6.560;2023-05-19T06:45:34;14.20;50.90
20091;DHT22;10205;49.678;6.560;2023-05-19T06:48:02;14.20;50.90
20091;DHT22;10205;49.678;6.560;2023-05-19T06:50:29;14.20;51.00
20091;DHT22;10205;49.678;6.560;2023-05-19T06:52:56;14.30;50.90
20091;DHT22;10205;49.678;6.560;2023-05-19T06:55:25;14.30;50.80
20091;DHT22;10205;49.678;6.560;2023-05-19T06:57:52;14.30;51.00
20091;DHT22;10205;49.678;6.560;2023-05-19T07:00:19;14.40;51.70
20091;DHT22;10205;49.678;6.560;2023-05-19T07:02:46;14.40;50.90
20091;DHT22;10205;49.678;6.560;2023-05-19T07:05:13;14.50;51.00
20091;DHT22;10205;49.678;6.560;2023-05-19T07:07:40;14.50;51.00
20091;DHT22;10205;49.678;6.560;2023-05-19T07:10:08;14.60;51.10
20091;DHT22;10205;49.678;6.560;2023-05-19T07:12:37;14.60;51.10
20091;DHT22;10205;49.678;6.560;2023-05-19T07:15:05;14.70;51.20
20091;DHT22;10205;49.678;6.560;2023-05-19T07:17:32;14.70;51.00
20091;DHT22;10205;49.678;6.560;2023-05-19T07:19:59;14.80;51.00
20091;DHT22;10205;49.678;6.560;2023-05-19T07:22:27;14.90;51.10
20091;DHT22;10205;49.678;6.560;2023-05-19T07:24:54;14.90;51.00
20091;DHT22;10205;49.678;6.560;2023-05-19T07:27:21;14.90;50.80
20091;DHT22;10205;49.678;6.560;2023-05-19T07:29:49;15.00;50.90
20091;DHT22;10205;49.678;6.560;2023-05-19T07:32:16;15.10;51.00
20091;DHT22;10205;49.678;6.560;2023-05-19T07:34:44;15.20;50.90
20091;DHT22;10205;49.678;6.560;2023-05-19T07:37:11;15.20;50.80
20091;DHT22;10205;49.678;6.560;2023-05-19T07:39:38;15.30;50.80
20091;DHT22;10205;49.678;6.560;2023-05-19T07:42:05;15.40;50.80
20091;DHT22;10205;49.678;6.560;2023-05-19T07:44:32;15.40;50.80
20091;DHT22;10205;49.678;6.560;2023-05-19T07:47:00;15.50;50.70
20091;DHT22;10205;49.678;6.560;2023-05-19T07:49:27;15.60;50.80
20091;DHT22;10205;49.678;6.560;2023-05-19T07:51:54;15.70;50.70
20091;DHT22;10205;49.678;6.560;2023-05-19T07:54:22;15.70;50.60
20091;DHT22;10205;49.678;6.560;2023-05-19T07:56:51;15.80;50.60
20091;DHT22;10205;49.678;6.560;2023-05-19T07:59:18;15.90;50.50
20091;DHT22;10205;49.678;6.560;2023-05-19T08:01:45;16.00;50.50
20091;DHT22;10205;49.678;6.560;2023-05-19T08:04:13;16.10;50.40
20091;DHT22;10205;49.678;6.560;2023-05-19T08:06:40;16.10;50.40
20091;DHT22;10205;49.678;6.560;2023-05-19T08:09:10;16.20;50.30
20091;DHT22;10205;49.678;6.560;2023-05-19T08:11:38;16.30;50.30
20091;DHT22;10205;49.678;6.560;2023-05-19T08:14:05;16.30;50.30
20091;DHT22;10205;49.678;6.560;2023-05-19T08:16:32;16.40;50.40
20091;DHT22;10205;49.678;6.560;2023-05-19T08:18:58;16.50;50.40
20091;DHT22;10205;49.678;6.560;2023-05-19T08:21:28;16.60;50.20
20091;DHT22;10205;49.678;6.560;2023-05-19T08:23:55;16.70;50.20
20091;DHT22;10205;49.678;6.560;2023-05-19T08:26:22;16.80;50.20
20091;DHT22;10205;49.678;6.560;2023-05-19T08:28:49;16.90;50.10
20091;DHT22;10205;49.678;6.560;2023-05-19T08:31:16;17.00;50.00
20091;DHT22;10205;49.678;6.560;2023-05-19T08:33:44;17.00;50.00
20091;DHT22;10205;49.678;6.560;2023-05-19T08:36:11;17.10;50.00
20091;DHT22;10205;49.678;6.560;2023-05-19T08:38:39;17.20;49.80
20091;DHT22;10205;49.678;6.560;2023-05-19T08:41:06;17.30;50.00
20091;DHT22;10205;49.678;6.560;2023-05-19T08:43:34;17.40;49.80
20091;DHT22;10205;49.678;6.560;2023-05-19T08:46:02;17.50;49.70
20091;DHT22;10205;49.678;6.560;2023-05-19T08:48:32;17.60;49.50
20091;DHT22;10205;49.678;6.560;2023-05-19T08:51:08;17.70;49.50
20091;DHT22;10205;49.678;6.560;2023-05-19T08:53:47;17.80;49.30
20091;DHT22;10205;49.678;6.560;2023-05-19T08:56:20;17.90;49.20
20091;DHT22;10205;49.678;6.560;2023-05-19T08:58:49;18.00;49.00
20091;DHT22;10205;49.678;6.560;2023-05-19T09:01:18;18.10;48.90
20091;DHT22;10205;49.678;6.560;2023-05-19T09:03:47;18.20;48.90
20091;DHT22;10205;49.678;6.560;2023-05-19T09:06:14;18.20;48.80
20091;DHT22;10205;49.678;6.560;2023-05-19T09:08:43;18.40;48.90
20091;DHT22;10205;49.678;6.560;2023-05-19T09:11:11;18.50;48.80
20091;DHT22;10205;49.678;6.560;2023-05-19T09:13:39;18.50;48.50
20091;DHT22;10205;49.678;6.560;2023-05-19T09:16:07;18.60;48.30
20091;DHT22;10205;49.678;6.560;2023-05-19T09:18:37;18.70;48.10
20091;DHT22;10205;49.678;6.560;2023-05-19T09:21:05;18.80;47.80
20091;DHT22;10205;49.678;6.560;2023-05-19T09:23:32;18.90;47.90
20091;DHT22;10205;49.678;6.560;2023-05-19T09:26:02;19.00;47.70
20091;DHT22;10205;49.678;6.560;2023-05-19T09:28:33;19.10;47.70
20091;DHT22;10205;49.678;6.560;2023-05-19T09:31:02;19.10;48.20
20091;DHT22;10205;49.678;6.560;2023-05-19T09:33:33;19.30;47.30
20091;DHT22;10205;49.678;6.560;2023-05-19T09:36:01;19.40;47.20
20091;DHT22;10205;49.678;6.560;2023-05-19T09:38:30;19.50;47.00
20091;DHT22;10205;49.678;6.560;2023-05-19T09:40:59;19.50;46.60
20091;DHT22;10205;49.678;6.560;2023-05-19T09:43:28;19.70;46.70
20091;DHT22;10205;49.678;6.560;2023-05-19T09:46:02;19.80;46.70
20091;DHT22;10205;49.678;6.560;2023-05-19T09:48:31;19.90;46.10
20091;DHT22;10205;49.678;6.560;2023-05-19T09:50:59;20.00;46.20
20091;DHT22;10205;49.678;6.560;2023-05-19T09:53:29;20.10;45.70
20091;DHT22;10205;49.678;6.560;2023-05-19T09:55:57;20.20;44.80
20091;DHT22;10205;49.678;6.560;2023-05-19T09:58:25;20.30;44.90
20091;DHT22;10205;49.678;6.560;2023-05-19T10:00:54;20.40;45.00
20091;DHT22;10205;49.678;6.560;2023-05-19T10:03:22;20.50;44.50
20091;DHT22;10205;49.678;6.560;2023-05-19T10:05:52;20.50;44.60
20091;DHT22;10205;49.678;6.560;2023-05-19T10:08:19;20.60;45.00
20091;DHT22;10205;49.678;6.560;2023-05-19T10:10:48;20.80;44.60
20091;DHT22;10205;49.678;6.560;2023-05-19T10:13:15;20.90;44.40
20091;DHT22;10205;49.678;6.560;2023-05-19T10:15:43;21.00;44.40
20091;DHT22;10205;49.678;6.560;2023-05-19T10:18:15;21.10;43.90
20091;DHT22;10205;49.678;6.560;2023-05-19T10:20:43;21.20;43.70
20091;DHT22;10205;49.678;6.560;2023-05-19T10:23:12;21.20;43.80
20091;DHT22;10205;49.678;6.560;2023-05-19T10:25:39;21.40;43.90
20091;DHT22;10205;49.678;6.560;2023-05-19T10:28:12;21.40;43.50
20091;DHT22;10205;49.678;6.560;2023-05-19T10:30:44;21.50;43.50
20091;DHT22;10205;49.678;6.560;2023-05-19T10:33:18;21.60;43.30
20091;DHT22;10205;49.678;6.560;2023-05-19T10:36:01;21.70;42.90
20091;DHT22;10205;49.678;6.560;2023-05-19T10:38:40;21.80;42.40
20091;DHT22;10205;49.678;6.560;2023-05-19T10:41:19;21.90;42.90
20091;DHT22;10205;49.678;6.560;2023-05-19T10:43:57;22.00;42.70
20091;DHT22;10205;49.678;6.560;2023-05-19T10:46:34;22.00;42.00
20091;DHT22;10205;49.678;6.560;2023-05-19T10:49:03;22.20;43.00
20091;DHT22;10205;49.678;6.560;2023-05-19T10:51:33;22.20;41.90
20091;DHT22;10205;49.678;6.560;2023-05-19T10:54:02;22.30;42.00
20091;DHT22;10205;49.678;6.560;2023-05-19T10:56:31;22.40;42.00
20091;DHT22;10205;49.678;6.560;2023-05-19T10:59:00;22.50;42.20
20091;DHT22;10205;49.678;6.560;2023-05-19T11:01:30;22.50;41.80
20091;DHT22;10205;49.678;6.560;2023-05-19T11:04:06;22.70;41.70
20091;DHT22;10205;49.678;6.560;2023-05-19T11:06:36;22.70;41.50
20091;DHT22;10205;49.678;6.560;2023-05-19T11:09:12;22.90;41.80
20091;DHT22;10205;49.678;6.560;2023-05-19T11:11:45;22.90;41.00
20091;DHT22;10205;49.678;6.560;2023-05-19T11:14:14;23.00;40.90
20091;DHT22;10205;49.678;6.560;2023-05-19T11:16:46;23.10;41.10
20091;DHT22;10205;49.678;6.560;2023-05-19T11:19:19;23.20;41.00
20091;DHT22;10205;49.678;6.560;2023-05-19T11:21:51;23.30;40.60
20091;DHT22;10205;49.678;6.560;2023-05-19T11:24:32;23.40;40.50
20091;DHT22;10205;49.678;6.560;2023-05-19T11:27:18;23.50;40.00
20091;DHT22;10205;49.678;6.560;2023-05-19T11:29:47;23.60;39.80
20091;DHT22;10205;49.678;6.560;2023-05-19T11:32:16;23.60;40.10
20091;DHT22;10205;49.678;6.560;2023-05-19T11:34:47;23.70;39.80
20091;DHT22;10205;49.678;6.560;2023-05-19T11:37:15;23.80;39.70
20091;DHT22;10205;49.678;6.560;2023-05-19T11:39:42;23.90;39.60
20091;DHT22;10205;49.678;6.560;2023-05-19T11:42:11;24.00;39.30
20091;DHT22;10205;49.678;6.560;2023-05-19T11:44:39;24.00;38.80
20091;DHT22;10205;49.678;6.560;2023-05-19T11:47:07;24.10;39.20
20091;DHT22;10205;49.678;6.560;2023-05-19T11:49:35;24.10;38.80
20091;DHT22;10205;49.678;6.560;2023-05-19T11:52:04;24.20;38.90
20091;DHT22;10205;49.678;6.560;2023-05-19T11:54:32;24.20;38.70
20091;DHT22;10205;49.678;6.560;2023-05-19T11:57:01;24.30;38.50
20091;DHT22;10205;49.678;6.560;2023-05-19T11:59:30;24.40;38.50
20091;DHT22;10205;49.678;6.560;2023-05-19T12:02:06;24.40;38.20
20091;DHT22;10205;49.678;6.560;2023-05-19T12:04:41;24.50;38.00
20091;DHT22;10205;49.678;6.560;2023-05-19T12:07:11;24.60;38.20
20091;DHT22;10205;49.678;6.560;2023-05-19T12:09:42;24.60;37.80
20091;DHT22;10205;49.678;6.560;2023-05-19T12:12:12;24.70;37.90
20091;DHT22;10205;49.678;6.560;2023-05-19T12:14:41;24.80;37.70
20091;DHT22;10205;49.678;6.560;2023-05-19T12:17:11;24.80;37.90
20091;DHT22;10205;49.678;6.560;2023-05-19T12:19:39;24.90;37.50
20091;DHT22;10205;49.678;6.560;2023-05-19T12:22:10;25.00;37.50
20091;DHT22;10205;49.678;6.560;2023-05-19T12:24:39;25.00;37.00
20091;DHT22;10205;49.678;6.560;2023-05-19T12:27:10;25.10;37.40
20091;DHT22;10205;49.678;6.560;2023-05-19T12:29:38;25.10;37.00
20091;DHT22;10205;49.678;6.560;2023-05-19T12:32:07;25.20;37.10
20091;DHT22;10205;49.678;6.560;2023-05-19T12:34:35;25.30;36.70
20091;DHT22;10205;49.678;6.560;2023-05-19T12:37:03;25.30;36.60
20091;DHT22;10205;49.678;6.560;2023-05-19T12:39:32;25.40;36.60
20091;DHT22;10205;49.678;6.560;2023-05-19T12:42:03;25.50;36.30
20091;DHT22;10205;49.678;6.560;2023-05-19T12:44:36;25.50;36.30
20091;DHT22;10205;49.678;6.560;2023-05-19T12:47:04;25.60;36.10
20091;DHT22;10205;49.678;6.560;2023-05-19T12:49:31;25.60;36.10
20091;DHT22;10205;49.678;6.560;2023-05-19T12:52:00;25.70;35.70
20091;DHT22;10205;49.678;6.560;2023-05-19T12:54:33;25.70;35.50
20091;DHT22;10205;49.678;6.560;2023-05-19T12:57:00;25.80;35.40
20091;DHT22;10205;49.678;6.560;2023-05-19T12:59:27;25.90;35.40
20091;DHT22;10205;49.678;6.560;2023-05-19T13:01:55;25.90;35.30
20091;DHT22;10205;49.678;6.560;2023-05-19T13:04:22;25.90;35.30
20091;DHT22;10205;49.678;6.560;2023-05-19T13:06:49;26.00;35.20
20091;DHT22;10205;49.678;6.560;2023-05-19T13:09:16;26.00;35.20
20091;DHT22;10205;49.678;6.560;2023-05-19T13:11:45;26.00;35.70
20091;DHT22;10205;49.678;6.560;2023-05-19T13:14:15;26.00;35.10
20091;DHT22;10205;49.678;6.560;2023-05-19T13:16:44;26.10;35.40
20091;DHT22;10205;49.678;6.560;2023-05-19T13:19:12;26.10;35.10
20091;DHT22;10205;49.678;6.560;2023-05-19T13:21:40;26.20;35.00
20091;DHT22;10205;49.678;6.560;2023-05-19T13:24:08;26.20;34.50
20091;DHT22;10205;49.678;6.560;2023-05-19T13:26:35;26.30;34.40
20091;DHT22;10205;49.678;6.560;2023-05-19T13:29:03;26.30;34.20
20091;DHT22;10205;49.678;6.560;2023-05-19T13:31:30;26.30;34.30
20091;DHT22;10205;49.678;6.560;2023-05-19T13:33:58;26.40;34.20
20091;DHT22;10205;49.678;6.560;2023-05-19T13:36:25;26.40;34.40
20091;DHT22;10205;49.678;6.560;2023-05-19T13:38:53;26.40;34.30
20091;DHT22;10205;49.678;6.560;2023-05-19T13:41:22;26.40;34.00
20091;DHT22;10205;49.678;6.560;2023-05-19T13:43:50;26.50;34.00
20091;DHT22;10205;49.678;6.560;2023-05-19T13:46:19;26.60;34.00
20091;DHT22;10205;49.678;6.560;2023-05-19T13:48:46;26.60;33.70
20091;DHT22;10205;49.678;6.560;2023-05-19T13:51:13;26.60;33.90
20091;DHT22;10205;49.678;6.560;2023-05-19T13:53:40;26.70;33.50
20091;DHT22;10205;49.678;6.560;2023-05-19T13:56:07;26.70;33.50
20091;DHT22;10205;49.678;6.560;2023-05-19T13:58:34;26.80;33.80
20091;DHT22;10205;49.678;6.560;2023-05-19T14:01:01;26.80;33.70
20091;DHT22;10205;49.678;6.560;2023-05-19T14:03:30;26.80;33.40
20091;DHT22;10205;49.678;6.560;2023-05-19T14:05:57;26.80;34.10
20091;DHT22;10205;49.678;6.560;2023-05-19T14:08:24;26.90;33.90
20091;DHT22;10205;49.678;6.560;2023-05-19T14:10:51;26.90;34.40
20091;DHT22;10205;49.678;6.560;2023-05-19T14:13:20;26.90;33.50
20091;DHT22;10205;49.678;6.560;2023-05-19T14:15:48;26.90;33.40
20091;DHT22;10205;49.678;6.560;2023-05-19T14:18:15;27.00;33.10
20091;DHT22;10205;49.678;6.560;2023-05-19T14:20:43;27.00;33.20
20091;DHT22;10205;49.678;6.560;2023-05-19T14:23:10;27.00;33.30
20091;DHT22;10205;49.678;6.560;2023-05-19T14:25:39;27.00;33.30
20091;DHT22;10205;49.678;6.560;2023-05-19T14:28:06;27.10;33.30
20091;DHT22;10205;49.678;6.560;2023-05-19T14:30:35;27.10;33.00
20091;DHT22;10205;49.678;6.560;2023-05-19T14:33:02;27.10;33.10
20091;DHT22;10205;49.678;6.560;2023-05-19T14:35:29;27.10;32.80
20091;DHT22;10205;49.678;6.560;2023-05-19T14:37:58;27.10;32.90
20091;DHT22;10205;49.678;6.560;2023-05-19T14:40:25;27.10;32.60
20091;DHT22;10205;49.678;6.560;2023-05-19T14:42:52;27.10;32.80
20091;DHT22;10205;49.678;6.560;2023-05-19T14:45:19;27.20;32.90
20091;DHT22;10205;49.678;6.560;2023-05-19T14:47:46;27.20;33.10
20091;DHT22;10205;49.678;6.560;2023-05-19T14:50:13;27.20;33.20
20091;DHT22;10205;49.678;6.560;2023-05-19T14:52:40;27.20;32.80
20091;DHT22;10205;49.678;6.560;2023-05-19T14:55:08;27.20;32.30
20091;DHT22;10205;49.678;6.560;2023-05-19T14:57:35;27.20;32.50
20091;DHT22;10205;49.678;6.560;2023-05-19T15:00:04;27.20;32.80
20091;DHT22;10205;49.678;6.560;2023-05-19T15:02:33;27.20;32.80
20091;DHT22;10205;49.678;6.560;2023-05-19T15:05:00;27.20;32.60
20091;DHT22;10205;49.678;6.560;2023-05-19T15:07:27;27.10;32.20
20091;DHT22;10205;49.678;6.560;2023-05-19T15:09:54;27.20;32.50
20091;DHT22;10205;49.678;6.560;2023-05-19T15:12:23;27.10;32.70
20091;DHT22;10205;49.678;6.560;2023-05-19T15:14:50;27.20;32.60
20091;DHT22;10205;49.678;6.560;2023-05-19T15:17:17;27.20;32.50
20091;DHT22;10205;49.678;6.560;2023-05-19T15:19:44;27.10;32.50
20091;DHT22;10205;49.678;6.560;2023-05-19T15:22:11;27.10;32.10
20091;DHT22;10205;49.678;6.560;2023-05-19T15:24:38;27.10;32.10
20091;DHT22;10205;49.678;6.560;2023-05-19T15:27:07;27.10;32.10
20091;DHT22;10205;49.678;6.560;2023-05-19T15:29:35;27.10;32.10
20091;DHT22;10205;49.678;6.560;2023-05-19T15:32:02;27.10;32.60
20091;DHT22;10205;49.678;6.560;2023-05-19T15:34:30;27.00;32.90
20091;DHT22;10205;49.678;6.560;2023-05-19T15:36:58;27.00;32.60
20091;DHT22;10205;49.678;6.560;2023-05-19T15:39:25;27.10;32.60